Time;durP1;ratioP1;P1;durP2;ratioP2;P2;SDS_P1;SDS_P2;PMS_P1;PMS_P2;Temp;Humidity;BMP_temperature;BMP_pressure;BME280_temperature;BME280_humidity;BME280_pressure;Samples;Min_cycle;Max_cycle;Signal;HPM_P1;HPM_P2
2022/03/02 00:00:51;;;;;;;11.85;10.20;;;;;;;;;;4996017;28;20051;-68
2022/03/02 00:03:19;;;;;;;12.32;10.10;;;;;;;;;;4995491;28;20062;-69
2022/03/02 00:05:46;;;;;;;12.38;10.50;;;;;;;;;;4997132;28;20057;-69
2022/03/02 00:08:14;;;;;;;11.85;10.48;;;;;;;;;;4994383;28;20038;-69
2022/03/02 00:10:42;;;;;;;12.35;11.00;;;;;;;;;;4978274;28;20505;-69
2022/03/02 00:13:10;;;;;;;13.40;10.50;;;;;;;;;;4990005;28;20046;-69
2022/03/02 00:15:37;;;;;;;11.60;10.32;;;;;;;;;;4989501;28;20051;-69
2022/03/02 00:18:04;;;;;;;18.45;12.68;;;;;;;;;;4977523;28;20070;-69
2022/03/02 00:20:33;;;;;;;12.20;10.35;;;;;;;;;;4975993;28;20141;-69
2022/03/02 00:23:01;;;;;;;11.75;10.00;;;;;;;;;;4977694;28;20138;-69
2022/03/02 00:25:28;;;;;;;11.27;9.40;;;;;;;;;;4977106;28;20137;-69
2022/03/02 00:27:55;;;;;;;11.85;10.07;;;;;;;;;;4977334;28;20101;-69
2022/03/02 00:30:23;;;;;;;14.25;10.85;;;;;;;;;;4983960;28;20045;-69
2022/03/02 00:32:51;;;;;;;14.30;10.27;;;;;;;;;;4976530;28;20480;-69
2022/03/02 00:35:18;;;;;;;14.38;10.20;;;;;;;;;;4984517;28;20045;-68
2022/03/02 00:37:46;;;;;;;12.55;10.68;;;;;;;;;;5011507;28;20149;-68
2022/03/02 00:40:14;;;;;;;12.85;11.48;;;;;;;;;;4996392;28;20137;-68
2022/03/02 00:42:43;;;;;;;12.88;9.05;;;;;;;;;;5011075;28;20119;-68
2022/03/02 00:45:12;;;;;;;12.65;10.30;;;;;;;;;;5011573;28;20043;-68
2022/03/02 00:47:39;;;;;;;11.98;10.75;;;;;;;;;;4992802;28;20057;-68
2022/03/02 00:50:07;;;;;;;11.07;9.85;;;;;;;;;;5011567;28;20409;-68
2022/03/02 00:52:35;;;;;;;15.82;9.75;;;;;;;;;;5011186;28;20046;-69
2022/03/02 00:55:03;;;;;;;12.88;9.30;;;;;;;;;;4997058;28;20050;-67
2022/03/02 00:57:30;;;;;;;11.73;9.43;;;;;;;;;;4996090;28;20072;-67
2022/03/02 00:59:58;;;;;;;12.40;10.18;;;;;;;;;;4996215;28;20057;-67
2022/03/02 01:02:25;;;;;;;11.60;9.77;;;;;;;;;;5011040;28;20088;-67
2022/03/02 01:04:52;;;;;;;10.82;8.73;;;;;;;;;;4977556;28;20113;-67
2022/03/02 01:07:20;;;;;;;11.40;9.23;;;;;;;;;;4977060;28;20066;-67
2022/03/02 01:09:48;;;;;;;12.98;11.15;;;;;;;;;;4976792;28;20047;-67
2022/03/02 01:12:15;;;;;;;12.13;9.18;;;;;;;;;;4976899;28;20042;-67
2022/03/02 01:14:43;;;;;;;10.98;9.43;;;;;;;;;;4976678;28;20038;-67
2022/03/02 01:17:10;;;;;;;14.13;10.07;;;;;;;;;;4976638;28;20082;-67
2022/03/02 01:19:39;;;;;;;13.30;9.98;;;;;;;;;;4986077;28;20494;-67
2022/03/02 01:22:06;;;;;;;11.98;9.25;;;;;;;;;;5010379;28;20061;-67
2022/03/02 01:24:33;;;;;;;14.07;10.55;;;;;;;;;;5010747;28;20557;-68
2022/03/02 01:27:03;;;;;;;8.82;7.95;;;;;;;;;;4995250;28;20137;-68
2022/03/02 01:29:33;;;;;;;13.98;10.25;;;;;;;;;;4986087;28;20046;-67
2022/03/02 01:32:06;;;;;;;13.07;9.73;;;;;;;;;;4976254;28;20050;-68
2022/03/02 01:34:35;;;;;;;11.60;8.50;;;;;;;;;;4975141;28;20050;-67
2022/03/02 01:37:03;;;;;;;10.52;9.13;;;;;;;;;;4974652;28;20301;-67
2022/03/02 01:39:31;;;;;;;10.00;9.00;;;;;;;;;;4963345;28;20054;-68
2022/03/02 01:41:58;;;;;;;11.32;9.15;;;;;;;;;;4993860;28;20099;-67
2022/03/02 01:44:25;;;;;;;14.15;10.32;;;;;;;;;;4994481;28;20050;-68
2022/03/02 01:46:53;;;;;;;10.80;9.68;;;;;;;;;;4995269;28;20125;-68
2022/03/02 01:49:21;;;;;;;12.27;8.98;;;;;;;;;;4995173;28;20055;-68
2022/03/02 01:51:53;;;;;;;11.00;9.07;;;;;;;;;;4994121;28;20053;-68
2022/03/02 01:54:20;;;;;;;12.45;8.93;;;;;;;;;;4995422;28;20084;-68
2022/03/02 01:56:48;;;;;;;10.57;9.48;;;;;;;;;;4978081;28;20498;-68
2022/03/02 01:59:15;;;;;;;11.82;8.88;;;;;;;;;;4978663;28;20502;-68
2022/03/02 02:01:44;;;;;;;10.68;8.75;;;;;;;;;;4975673;28;20055;-68
2022/03/02 02:04:12;;;;;;;10.43;9.35;;;;;;;;;;4975979;28;20125;-68
2022/03/02 02:06:39;;;;;;;10.18;8.07;;;;;;;;;;4982557;28;20050;-68
2022/03/02 02:09:07;;;;;;;9.80;8.73;;;;;;;;;;4975007;28;20081;-68
2022/03/02 02:11:34;;;;;;;13.73;10.18;;;;;;;;;;4975499;28;20482;-68
2022/03/02 02:14:03;;;;;;;11.55;9.13;;;;;;;;;;4975668;28;20047;-69
2022/03/02 02:16:30;;;;;;;10.75;9.30;;;;;;;;;;4975577;28;20078;-69
2022/03/02 02:18:58;;;;;;;15.38;10.18;;;;;;;;;;4975119;28;20042;-69
2022/03/02 02:21:27;;;;;;;12.05;9.65;;;;;;;;;;4974269;28;20129;-69
2022/03/02 02:23:55;;;;;;;12.65;8.80;;;;;;;;;;4974217;28;20059;-69
2022/03/02 02:26:22;;;;;;;13.55;8.93;;;;;;;;;;4975442;28;20055;-68
2022/03/02 02:28:51;;;;;;;10.32;9.32;;;;;;;;;;4975053;28;20077;-67
2022/03/02 02:31:18;;;;;;;12.05;9.55;;;;;;;;;;4975170;28;20059;-67
2022/03/02 02:33:46;;;;;;;10.65;8.85;;;;;;;;;;4974079;28;20039;-69
2022/03/02 02:36:14;;;;;;;9.65;8.00;;;;;;;;;;4990456;28;20046;-69
2022/03/02 02:38:41;;;;;;;9.95;8.30;;;;;;;;;;4973904;28;20082;-69
2022/03/02 02:41:08;;;;;;;11.35;9.38;;;;;;;;;;4974151;28;20061;-69
2022/03/02 02:43:37;;;;;;;10.48;8.52;;;;;;;;;;4975135;28;20046;-69
2022/03/02 02:46:05;;;;;;;9.52;8.23;;;;;;;;;;4973570;28;20059;-69
2022/03/02 02:48:32;;;;;;;16.30;8.75;;;;;;;;;;4990796;28;20425;-68
2022/03/02 02:51:00;;;;;;;9.98;8.70;;;;;;;;;;5009449;28;20050;-69
2022/03/02 02:53:27;;;;;;;9.73;8.77;;;;;;;;;;5008887;28;20133;-69
2022/03/02 02:55:55;;;;;;;10.07;8.77;;;;;;;;;;5009228;28;20058;-69
2022/03/02 02:58:22;;;;;;;10.05;8.93;;;;;;;;;;5008902;28;20077;-69
2022/03/02 03:00:50;;;;;;;10.35;9.05;;;;;;;;;;5009343;28;20125;-69
2022/03/02 03:03:18;;;;;;;10.35;8.77;;;;;;;;;;4993963;28;20081;-68
2022/03/02 03:05:46;;;;;;;12.05;9.57;;;;;;;;;;4993741;28;20058;-68
2022/03/02 03:08:14;;;;;;;11.85;10.38;;;;;;;;;;4993759;28;20056;-71
2022/03/02 03:10:42;;;;;;;11.10;9.68;;;;;;;;;;4992217;28;20509;-69
2022/03/02 03:13:09;;;;;;;15.88;10.32;;;;;;;;;;4992328;28;20117;-68
2022/03/02 03:15:37;;;;;;;12.93;10.45;;;;;;;;;;4993969;28;20168;-68
2022/03/02 03:18:06;;;;;;;13.98;10.88;;;;;;;;;;4993063;28;20050;-68
2022/03/02 03:20:35;;;;;;;10.10;8.65;;;;;;;;;;4994803;28;20523;-68
2022/03/02 03:23:03;;;;;;;10.82;8.75;;;;;;;;;;4998332;28;20086;-68
2022/03/02 03:25:31;;;;;;;10.32;9.20;;;;;;;;;;4996964;28;20413;-68
2022/03/02 03:27:58;;;;;;;9.68;8.68;;;;;;;;;;4997551;28;20108;-68
2022/03/02 03:30:26;;;;;;;9.13;7.75;;;;;;;;;;4996769;28;20129;-68
2022/03/02 03:32:54;;;;;;;11.02;9.13;;;;;;;;;;4996653;28;20137;-68
2022/03/02 03:35:24;;;;;;;10.50;8.13;;;;;;;;;;4997113;28;20054;-69
2022/03/02 03:37:52;;;;;;;9.63;7.95;;;;;;;;;;4997762;28;20081;-68
2022/03/02 03:40:21;;;;;;;12.27;8.43;;;;;;;;;;4995646;28;20119;-69
2022/03/02 03:42:50;;;;;;;10.40;9.30;;;;;;;;;;4997344;28;20472;-68
2022/03/02 03:45:17;;;;;;;9.80;8.80;;;;;;;;;;4994621;28;20088;-69
2022/03/02 03:47:45;;;;;;;10.13;8.98;;;;;;;;;;4983736;28;20043;-69
2022/03/02 03:50:13;;;;;;;10.13;8.73;;;;;;;;;;4986429;28;20057;-68
2022/03/02 03:52:40;;;;;;;11.23;8.52;;;;;;;;;;4994497;28;20074;-68
2022/03/02 03:55:10;;;;;;;12.20;8.40;;;;;;;;;;4977106;28;20510;-68
2022/03/02 03:57:38;;;;;;;9.60;8.20;;;;;;;;;;4993543;28;20054;-68
2022/03/02 04:00:15;;;;;;;8.60;7.80;;;;;;;;;;4986397;28;20130;-68
2022/03/02 04:02:43;;;;;;;10.23;9.10;;;;;;;;;;4990452;28;20054;-68
2022/03/02 04:05:11;;;;;;;8.35;7.50;;;;;;;;;;5011574;28;20062;-66
2022/03/02 04:07:44;;;;;;;9.15;8.00;;;;;;;;;;4982812;28;20054;-66
2022/03/02 04:10:13;;;;;;;13.05;9.23;;;;;;;;;;4977793;28;20105;-67
2022/03/02 04:12:40;;;;;;;10.25;7.93;;;;;;;;;;4977999;28;20157;-66
2022/03/02 04:15:09;;;;;;;12.77;8.20;;;;;;;;;;4987619;28;20054;-68
2022/03/02 04:17:36;;;;;;;10.05;8.63;;;;;;;;;;4984121;28;20074;-67
2022/03/02 04:20:05;;;;;;;10.68;9.57;;;;;;;;;;4977555;28;20502;-67
2022/03/02 04:22:33;;;;;;;12.93;8.27;;;;;;;;;;4977795;28;20051;-67
2022/03/02 04:25:01;;;;;;;11.45;8.85;;;;;;;;;;4977604;28;20063;-67
2022/03/02 04:27:29;;;;;;;10.13;7.85;;;;;;;;;;4995166;28;20050;-67
2022/03/02 04:29:57;;;;;;;9.90;8.35;;;;;;;;;;4979361;28;20080;-67
2022/03/02 04:32:24;;;;;;;12.43;9.25;;;;;;;;;;4995950;28;20185;-67
2022/03/02 04:34:52;;;;;;;8.68;7.78;;;;;;;;;;4995530;28;20046;-67
2022/03/02 04:37:20;;;;;;;9.23;8.32;;;;;;;;;;4996379;28;20054;-67
2022/03/02 04:39:48;;;;;;;8.68;7.82;;;;;;;;;;4988945;28;20054;-67
2022/03/02 04:42:16;;;;;;;8.35;7.18;;;;;;;;;;4977440;28;20051;-67
2022/03/02 04:44:44;;;;;;;8.27;7.07;;;;;;;;;;4989036;28;20046;-68
2022/03/02 04:47:11;;;;;;;8.40;7.35;;;;;;;;;;4989136;28;20062;-67
2022/03/02 04:49:39;;;;;;;11.55;7.30;;;;;;;;;;4988801;28;20078;-67
2022/03/02 04:52:06;;;;;;;9.48;7.35;;;;;;;;;;4995145;28;20062;-67
2022/03/02 04:57:20;;;;;;;8.48;7.57;;;;;;;;;;4994959;28;20049;-67
2022/03/02 04:59:49;;;;;;;9.70;7.75;;;;;;;;;;4995895;28;20042;-67
2022/03/02 05:02:17;;;;;;;11.93;8.00;;;;;;;;;;4994827;28;20058;-67
2022/03/02 05:04:59;;;;;;;9.65;6.57;;;;;;;;;;4994642;28;20133;-67
2022/03/02 05:07:35;;;;;;;9.95;7.95;;;;;;;;;;4995307;28;20092;-67
2022/03/02 05:10:05;;;;;;;8.68;7.63;;;;;;;;;;4995741;28;20129;-67
2022/03/02 05:12:33;;;;;;;9.05;7.57;;;;;;;;;;4996063;28;20113;-67
2022/03/02 05:15:01;;;;;;;8.95;7.85;;;;;;;;;;4994249;28;20053;-67
2022/03/02 05:17:29;;;;;;;13.77;8.77;;;;;;;;;;4994248;28;20081;-67
2022/03/02 05:19:56;;;;;;;8.63;7.75;;;;;;;;;;4994410;28;20050;-66
2022/03/02 05:22:24;;;;;;;11.43;9.20;;;;;;;;;;4995847;28;20072;-66
2022/03/02 05:24:51;;;;;;;11.00;8.82;;;;;;;;;;4995373;28;20055;-67
2022/03/02 05:27:19;;;;;;;15.55;9.70;;;;;;;;;;4994512;28;20482;-67
2022/03/02 05:29:48;;;;;;;10.77;7.43;;;;;;;;;;4995292;28;20050;-66
2022/03/02 05:32:15;;;;;;;12.82;7.95;;;;;;;;;;4994367;28;20526;-67
2022/03/02 05:34:44;;;;;;;9.52;7.57;;;;;;;;;;4994253;28;20054;-67
2022/03/02 05:37:11;;;;;;;8.93;8.02;;;;;;;;;;4995347;28;20043;-67
2022/03/02 05:39:38;;;;;;;10.68;8.50;;;;;;;;;;4994573;28;20137;-67
2022/03/02 05:42:08;;;;;;;15.98;8.63;;;;;;;;;;4978112;28;20133;-67
2022/03/02 05:44:35;;;;;;;10.27;8.48;;;;;;;;;;4994962;28;20445;-67
2022/03/02 05:47:03;;;;;;;10.52;8.30;;;;;;;;;;4993223;28;20050;-67
2022/03/02 05:49:31;;;;;;;8.57;7.70;;;;;;;;;;4989976;28;20153;-67
2022/03/02 05:51:59;;;;;;;9.60;8.60;;;;;;;;;;4983974;28;20054;-66
2022/03/02 05:54:26;;;;;;;9.85;7.97;;;;;;;;;;4978129;28;20089;-68
2022/03/02 05:56:53;;;;;;;10.35;6.78;;;;;;;;;;4979910;28;20050;-67
2022/03/02 05:59:21;;;;;;;10.75;8.20;;;;;;;;;;4989116;28;20459;-67
2022/03/02 06:01:49;;;;;;;10.27;8.80;;;;;;;;;;4986920;28;20506;-67
2022/03/02 06:04:16;;;;;;;13.13;8.98;;;;;;;;;;4978619;28;20485;-67
2022/03/02 06:06:44;;;;;;;13.80;10.85;;;;;;;;;;4989908;28;20462;-68
2022/03/02 06:09:11;;;;;;;11.35;8.93;;;;;;;;;;4991999;28;20050;-68
2022/03/02 06:11:39;;;;;;;12.55;9.10;;;;;;;;;;4981636;28;20055;-68
2022/03/02 06:14:07;;;;;;;14.02;9.10;;;;;;;;;;4984437;28;20050;-67
2022/03/02 06:16:40;;;;;;;9.07;8.00;;;;;;;;;;4978952;28;20058;-67
2022/03/02 06:19:08;;;;;;;8.80;7.63;;;;;;;;;;4982079;28;20494;-67
2022/03/02 06:21:38;;;;;;;13.32;7.50;;;;;;;;;;4981350;28;20043;-67
2022/03/02 06:24:06;;;;;;;10.98;7.55;;;;;;;;;;4985167;28;20042;-68
2022/03/02 06:26:33;;;;;;;10.23;7.90;;;;;;;;;;4975824;28;20046;-68
2022/03/02 06:29:00;;;;;;;9.35;7.82;;;;;;;;;;4972322;28;20494;-68
2022/03/02 06:31:27;;;;;;;11.07;7.80;;;;;;;;;;4985215;28;20054;-65
2022/03/02 06:33:55;;;;;;;9.75;7.72;;;;;;;;;;4983965;28;20046;-68
2022/03/02 06:36:23;;;;;;;9.18;7.82;;;;;;;;;;4984554;28;20038;-66
2022/03/02 06:38:52;;;;;;;11.30;8.02;;;;;;;;;;4990195;28;20055;-66
2022/03/02 06:41:35;;;;;;;13.52;8.98;;;;;;;;;;4989022;28;20048;-68
2022/03/02 06:44:09;;;;;;;13.93;9.95;;;;;;;;;;4984582;28;20422;-66
2022/03/02 06:46:50;;;;;;;15.20;10.37;;;;;;;;;;4977737;28;20463;-66
2022/03/02 06:49:26;;;;;;;16.17;9.60;;;;;;;;;;4987089;28;20305;-66
2022/03/02 06:51:58;;;;;;;10.43;9.32;;;;;;;;;;4979578;28;20072;-66
2022/03/02 06:54:30;;;;;;;11.63;9.90;;;;;;;;;;4977787;28;20051;-66
2022/03/02 06:57:00;;;;;;;12.38;9.55;;;;;;;;;;4981520;28;20061;-66
2022/03/02 06:59:38;;;;;;;16.63;10.63;;;;;;;;;;4990273;28;20064;-67
2022/03/02 07:02:06;;;;;;;11.23;9.13;;;;;;;;;;4983115;28;20070;-67
2022/03/02 07:04:42;;;;;;;14.75;10.73;;;;;;;;;;4981606;28;20062;-67
2022/03/02 07:07:11;;;;;;;11.25;8.43;;;;;;;;;;4981471;28;20082;-66
2022/03/02 07:09:39;;;;;;;12.10;9.52;;;;;;;;;;4977509;28;20047;-66
2022/03/02 07:12:07;;;;;;;11.65;9.20;;;;;;;;;;4984497;28;20051;-66
2022/03/02 07:14:35;;;;;;;13.18;9.07;;;;;;;;;;4984868;28;20121;-66
2022/03/02 07:17:04;;;;;;;15.73;8.55;;;;;;;;;;4983033;28;20097;-66
2022/03/02 07:19:31;;;;;;;9.95;7.75;;;;;;;;;;4980984;28;20406;-75
2022/03/02 07:22:04;;;;;;;8.18;7.38;;;;;;;;;;4986222;28;20137;-66
2022/03/02 07:24:41;;;;;;;11.48;8.23;;;;;;;;;;4973654;28;20120;-66
2022/03/02 07:27:08;;;;;;;10.50;8.93;;;;;;;;;;4974976;28;20077;-68
2022/03/02 07:29:36;;;;;;;9.95;7.55;;;;;;;;;;4974772;28;20039;-68
2022/03/02 07:32:04;;;;;;;10.23;8.98;;;;;;;;;;4974981;28;20508;-68
2022/03/02 07:34:32;;;;;;;10.68;8.52;;;;;;;;;;4991795;28;20085;-67
2022/03/02 07:37:01;;;;;;;12.93;8.57;;;;;;;;;;5002822;28;20051;-67
2022/03/02 07:39:28;;;;;;;10.52;8.55;;;;;;;;;;4998946;28;20051;-66
2022/03/02 07:41:57;;;;;;;14.50;9.55;;;;;;;;;;4992959;28;20501;-67
2022/03/02 07:44:24;;;;;;;15.50;10.23;;;;;;;;;;4988205;28;20057;-67
2022/03/02 07:46:56;;;;;;;9.55;8.60;;;;;;;;;;4983558;28;20126;-67
2022/03/02 07:49:23;;;;;;;11.90;8.88;;;;;;;;;;4984785;28;20050;-67
2022/03/02 07:51:52;;;;;;;11.95;8.68;;;;;;;;;;4991409;28;20081;-67
2022/03/02 07:54:21;;;;;;;11.63;8.23;;;;;;;;;;4976238;28;20429;-67
2022/03/02 07:56:50;;;;;;;10.05;7.80;;;;;;;;;;4991600;28;20077;-67
2022/03/02 07:59:21;;;;;;;7.40;6.70;;;;;;;;;;4992856;28;20046;-67
2022/03/02 08:01:50;;;;;;;9.35;6.95;;;;;;;;;;4992629;28;20127;-67
2022/03/02 08:04:18;;;;;;;10.68;7.68;;;;;;;;;;4992840;28;20149;-67
2022/03/02 08:06:45;;;;;;;10.95;8.55;;;;;;;;;;4989080;28;20125;-67
2022/03/02 08:09:13;;;;;;;13.40;7.30;;;;;;;;;;4977911;28;20414;-67
2022/03/02 08:11:40;;;;;;;15.05;7.60;;;;;;;;;;4992816;28;20596;-67
2022/03/02 08:14:08;;;;;;;15.07;8.80;;;;;;;;;;4976628;28;20208;-67
2022/03/02 08:16:36;;;;;;;10.57;7.32;;;;;;;;;;4990102;28;20046;-67
2022/03/02 08:19:04;;;;;;;7.63;6.82;;;;;;;;;;4981455;28;20050;-68
2022/03/02 08:21:35;;;;;;;12.02;8.20;;;;;;;;;;4992242;28;20051;-68
2022/03/02 08:24:05;;;;;;;13.80;8.55;;;;;;;;;;4994667;28;20053;-68
2022/03/02 08:26:33;;;;;;;9.57;6.90;;;;;;;;;;4979467;28;20077;-68
2022/03/02 08:29:04;;;;;;;13.25;8.50;;;;;;;;;;4984520;28;20096;-68
2022/03/02 08:31:32;;;;;;;21.10;10.07;;;;;;;;;;4987711;28;20042;-68
2022/03/02 08:34:00;;;;;;;11.80;7.93;;;;;;;;;;4979147;28;20046;-68
2022/03/02 08:36:33;;;;;;;10.25;8.25;;;;;;;;;;4995278;28;20569;-68
2022/03/02 08:39:06;;;;;;;13.93;10.05;;;;;;;;;;4976943;28;20057;-68
2022/03/02 08:41:34;;;;;;;12.93;8.63;;;;;;;;;;4989746;28;20054;-68
2022/03/02 08:44:03;;;;;;;22.40;9.98;;;;;;;;;;5005093;28;20096;-68
2022/03/02 08:46:35;;;;;;;11.55;10.35;;;;;;;;;;4995076;28;20038;-69
2022/03/02 08:49:03;;;;;;;20.25;12.23;;;;;;;;;;4982924;28;20054;-68
2022/03/02 08:51:30;;;;;;;15.50;11.20;;;;;;;;;;4990058;28;20074;-68
2022/03/02 08:54:02;;;;;;;14.27;11.02;;;;;;;;;;4994776;28;20052;-68
2022/03/02 08:56:37;;;;;;;12.48;10.45;;;;;;;;;;4980176;28;20077;-68
2022/03/02 08:59:04;;;;;;;14.70;10.93;;;;;;;;;;4983537;28;20125;-68
2022/03/02 09:01:32;;;;;;;14.05;11.43;;;;;;;;;;4991708;28;20070;-68
2022/03/02 09:04:02;;;;;;;13.38;11.35;;;;;;;;;;4982507;28;20054;-68
2022/03/02 09:06:29;;;;;;;15.68;10.82;;;;;;;;;;4990878;28;20601;-68
2022/03/02 09:08:56;;;;;;;15.13;13.57;;;;;;;;;;4976403;28;20521;-68
2022/03/02 09:11:25;;;;;;;15.75;12.77;;;;;;;;;;4984843;28;20489;-68
2022/03/02 09:13:52;;;;;;;13.10;11.70;;;;;;;;;;4992459;28;20096;-68
2022/03/02 09:16:21;;;;;;;13.48;11.55;;;;;;;;;;4983524;28;20058;-68
2022/03/02 09:18:50;;;;;;;12.60;10.70;;;;;;;;;;4977269;28;20058;-67
2022/03/02 09:21:19;;;;;;;12.13;10.38;;;;;;;;;;4990801;28;20057;-67
2022/03/02 09:23:48;;;;;;;13.43;12.10;;;;;;;;;;4991045;28;20140;-66
2022/03/02 09:26:19;;;;;;;14.18;10.13;;;;;;;;;;4994026;28;20166;-67
2022/03/02 09:28:50;;;;;;;12.68;11.27;;;;;;;;;;4995006;28;20100;-67
2022/03/02 09:31:20;;;;;;;12.98;11.38;;;;;;;;;;4984514;28;20054;-66
2022/03/02 09:33:58;;;;;;;14.68;11.82;;;;;;;;;;4983664;28;20076;-66
2022/03/02 09:36:26;;;;;;;13.02;11.60;;;;;;;;;;4990686;28;20121;-67
2022/03/02 09:38:54;;;;;;;16.63;11.07;;;;;;;;;;4984169;28;20042;-67
2022/03/02 09:41:30;;;;;;;15.20;11.75;;;;;;;;;;5007899;28;20054;-67
2022/03/02 09:43:58;;;;;;;31.30;24.38;;;;;;;;;;4984274;28;20688;-67
2022/03/02 09:46:35;;;;;;;12.82;11.43;;;;;;;;;;4986400;28;20047;-66
2022/03/02 09:49:08;;;;;;;15.73;12.20;;;;;;;;;;4982996;28;20414;-67
2022/03/02 09:51:40;;;;;;;13.70;12.23;;;;;;;;;;4973334;28;20054;-66
2022/03/02 09:54:08;;;;;;;14.00;12.60;;;;;;;;;;4988396;28;20456;-67
2022/03/02 09:56:36;;;;;;;14.05;12.55;;;;;;;;;;4992369;28;20054;-67
2022/03/02 09:59:08;;;;;;;13.40;11.60;;;;;;;;;;4992904;28;20086;-67
2022/03/02 10:01:38;;;;;;;18.40;12.48;;;;;;;;;;4990178;28;20138;-67
2022/03/02 10:04:13;;;;;;;14.02;12.55;;;;;;;;;;4992480;28;20062;-67
2022/03/02 10:06:43;;;;;;;13.43;12.02;;;;;;;;;;4993014;28;20069;-67
2022/03/02 10:09:12;;;;;;;14.38;12.40;;;;;;;;;;4974673;28;20098;-67
2022/03/02 10:11:42;;;;;;;14.60;13.07;;;;;;;;;;4982613;28;20101;-67
2022/03/02 10:14:20;;;;;;;15.02;13.13;;;;;;;;;;4993267;28;20046;-67
2022/03/02 10:16:52;;;;;;;13.88;12.13;;;;;;;;;;4994074;28;20046;-67
2022/03/02 10:19:46;;;;;;;15.73;12.65;;;;;;;;;;4994326;28;20406;-66
2022/03/02 10:22:45;;;;;;;17.52;14.00;;;;;;;;;;4977893;28;20166;-67
2022/03/02 10:25:16;;;;;;;16.27;12.32;;;;;;;;;;4980722;28;20073;-66
2022/03/02 10:28:06;;;;;;;15.65;12.95;;;;;;;;;;4977012;28;20054;-67
2022/03/02 10:30:39;;;;;;;15.95;13.27;;;;;;;;;;4992281;28;20093;-67
2022/03/02 10:33:24;;;;;;;16.92;14.50;;;;;;;;;;4973845;28;20134;-67
2022/03/02 10:36:11;;;;;;;17.98;16.15;;;;;;;;;;4987361;28;20050;-67
2022/03/02 10:38:58;;;;;;;18.65;13.45;;;;;;;;;;4974762;28;20061;-67
2022/03/02 10:41:27;;;;;;;17.77;12.82;;;;;;;;;;4993427;28;20073;-67
2022/03/02 10:44:03;;;;;;;14.98;12.73;;;;;;;;;;4974785;28;20046;-67
2022/03/02 10:46:33;;;;;;;19.95;13.85;;;;;;;;;;4974520;28;20545;-67
2022/03/02 10:49:06;;;;;;;17.27;13.50;;;;;;;;;;4982385;28;20056;-67
2022/03/02 10:51:35;;;;;;;15.80;13.00;;;;;;;;;;4993039;28;20061;-67
2022/03/02 10:54:05;;;;;;;16.55;13.85;;;;;;;;;;4990269;28;20042;-67
2022/03/02 10:56:38;;;;;;;15.52;13.05;;;;;;;;;;4976540;28;20050;-68
2022/03/02 10:59:08;;;;;;;14.32;12.90;;;;;;;;;;5004692;28;20078;-68
2022/03/02 11:01:36;;;;;;;14.25;12.75;;;;;;;;;;5008328;28;20141;-68
2022/03/02 11:04:07;;;;;;;14.27;12.18;;;;;;;;;;4992397;28;20061;-68
2022/03/02 11:06:35;;;;;;;18.90;14.23;;;;;;;;;;4991863;28;20596;-68
2022/03/02 11:09:05;;;;;;;18.98;13.77;;;;;;;;;;4975814;28;20410;-68
2022/03/02 11:11:35;;;;;;;14.43;11.90;;;;;;;;;;4991819;28;20141;-68
2022/03/02 11:14:08;;;;;;;13.77;12.38;;;;;;;;;;5000616;28;20050;-68
2022/03/02 11:16:35;;;;;;;15.15;12.77;;;;;;;;;;4977527;28;20078;-68
2022/03/02 11:19:15;;;;;;;13.88;12.40;;;;;;;;;;4972750;28;20053;-68
2022/03/02 11:21:44;;;;;;;23.90;12.57;;;;;;;;;;4983326;28;20050;-68
2022/03/02 11:24:17;;;;;;;13.05;11.45;;;;;;;;;;4991740;28;20104;-68
2022/03/02 11:26:49;;;;;;;14.82;12.13;;;;;;;;;;4990792;28;20081;-68
2022/03/02 11:29:17;;;;;;;12.50;11.23;;;;;;;;;;4976384;28;20118;-68
2022/03/02 11:31:47;;;;;;;12.73;11.40;;;;;;;;;;4992975;28;20054;-68
2022/03/02 11:34:18;;;;;;;14.57;12.10;;;;;;;;;;4993192;28;20085;-68
2022/03/02 11:36:49;;;;;;;15.23;12.35;;;;;;;;;;4973849;28;20129;-68
2022/03/02 11:39:26;;;;;;;22.40;12.57;;;;;;;;;;4976982;28;20054;-68
2022/03/02 11:41:57;;;;;;;18.75;11.95;;;;;;;;;;4983888;28;20146;-68
2022/03/02 11:44:39;;;;;;;16.77;12.38;;;;;;;;;;5003249;28;20129;-68
2022/03/02 11:47:12;;;;;;;15.10;11.52;;;;;;;;;;4995708;28;20050;-65
2022/03/02 11:49:47;;;;;;;13.57;12.18;;;;;;;;;;4995745;28;20066;-66
2022/03/02 11:52:33;;;;;;;18.80;11.75;;;;;;;;;;4982056;28;20498;-65
2022/03/02 11:55:06;;;;;;;15.27;11.95;;;;;;;;;;5010586;28;20050;-66
2022/03/02 11:57:41;;;;;;;15.70;12.52;;;;;;;;;;5011456;28;20046;-66
2022/03/02 12:00:19;;;;;;;17.70;12.95;;;;;;;;;;5011037;28;20144;-66
2022/03/02 12:02:50;;;;;;;14.95;13.38;;;;;;;;;;4977556;28;20055;-66
2022/03/02 12:05:20;;;;;;;21.15;12.38;;;;;;;;;;4988677;28;20050;-68
2022/03/02 12:07:52;;;;;;;13.95;12.00;;;;;;;;;;4991296;28;20046;-68
2022/03/02 12:10:24;;;;;;;17.90;11.45;;;;;;;;;;4985348;28;20132;-68
2022/03/02 12:12:52;;;;;;;14.25;11.88;;;;;;;;;;4987498;28;20137;-68
2022/03/02 12:15:20;;;;;;;14.23;11.93;;;;;;;;;;4977194;28;20059;-68
2022/03/02 12:17:51;;;;;;;16.27;11.93;;;;;;;;;;4977270;28;20075;-68
2022/03/02 12:20:21;;;;;;;13.25;11.68;;;;;;;;;;4986751;28;20051;-68
2022/03/02 12:22:51;;;;;;;13.35;11.95;;;;;;;;;;5003474;28;20050;-68
2022/03/02 12:25:21;;;;;;;21.52;14.88;;;;;;;;;;4996707;28;20046;-68
2022/03/02 12:28:01;;;;;;;14.25;12.43;;;;;;;;;;4979772;28;20465;-68
2022/03/02 12:30:31;;;;;;;16.75;12.15;;;;;;;;;;4989337;28;20549;-68
2022/03/02 12:32:58;;;;;;;19.60;13.15;;;;;;;;;;4977052;28;20082;-68
2022/03/02 12:35:27;;;;;;;17.45;11.98;;;;;;;;;;4977286;28;20067;-68
2022/03/02 12:37:59;;;;;;;15.80;12.77;;;;;;;;;;4978985;28;20149;-68
2022/03/02 12:40:28;;;;;;;17.63;12.75;;;;;;;;;;4990145;28;20512;-67
2022/03/02 12:42:56;;;;;;;20.77;13.25;;;;;;;;;;4996187;28;20073;-68
2022/03/02 12:45:24;;;;;;;15.60;11.85;;;;;;;;;;4987880;28;20521;-68
2022/03/02 12:47:53;;;;;;;14.40;12.73;;;;;;;;;;4976906;28;20403;-68
2022/03/02 12:50:21;;;;;;;14.52;12.68;;;;;;;;;;4976912;28;20050;-67
2022/03/02 12:52:50;;;;;;;13.32;11.85;;;;;;;;;;4984905;28;20050;-68
2022/03/02 12:55:17;;;;;;;17.90;12.90;;;;;;;;;;5010856;28;20050;-68
2022/03/02 12:57:46;;;;;;;13.60;11.65;;;;;;;;;;5011075;28;20058;-67
2022/03/02 13:00:21;;;;;;;13.23;11.68;;;;;;;;;;4990320;28;20087;-67
2022/03/02 13:02:53;;;;;;;14.95;12.75;;;;;;;;;;5010148;28;20058;-69
2022/03/02 13:05:26;;;;;;;14.00;12.02;;;;;;;;;;4994477;28;20046;-67
2022/03/02 13:08:02;;;;;;;15.68;13.52;;;;;;;;;;4995870;28;20062;-69
2022/03/02 13:10:29;;;;;;;14.77;11.57;;;;;;;;;;4993529;28;20057;-68
2022/03/02 13:12:58;;;;;;;13.35;11.35;;;;;;;;;;4990996;28;20519;-68
2022/03/02 13:15:31;;;;;;;16.02;12.95;;;;;;;;;;4967841;28;20058;-68
2022/03/02 13:18:08;;;;;;;16.23;12.50;;;;;;;;;;4991767;28;20458;-68
2022/03/02 13:20:37;;;;;;;18.98;12.52;;;;;;;;;;4980736;28;20039;-67
2022/03/02 13:23:23;;;;;;;15.70;10.68;;;;;;;;;;4995110;28;20047;-68
2022/03/02 13:25:58;;;;;;;18.20;12.88;;;;;;;;;;4995050;28;20056;-68
2022/03/02 13:28:27;;;;;;;14.88;12.27;;;;;;;;;;4995078;28;20139;-68
2022/03/02 13:31:12;;;;;;;16.60;12.27;;;;;;;;;;4993424;28;20072;-68
2022/03/02 13:33:55;;;;;;;16.02;10.48;;;;;;;;;;4995683;28;20053;-68
2022/03/02 13:36:48;;;;;;;14.35;11.80;;;;;;;;;;4994539;28;20050;-68
2022/03/02 13:39:31;;;;;;;16.45;12.75;;;;;;;;;;4987858;28;20047;-68
2022/03/02 13:42:00;;;;;;;15.77;12.75;;;;;;;;;;4975869;28;20138;-68
2022/03/02 13:44:40;;;;;;;14.63;11.02;;;;;;;;;;4987543;28;20104;-68
2022/03/02 13:47:08;;;;;;;12.75;11.13;;;;;;;;;;4964292;28;20465;-68
2022/03/02 13:49:47;;;;;;;15.68;11.40;;;;;;;;;;4988443;28;20082;-68
2022/03/02 13:52:17;;;;;;;14.40;12.45;;;;;;;;;;4975843;28;20050;-68
2022/03/02 13:54:45;;;;;;;14.35;11.73;;;;;;;;;;4983477;28;20050;-68
2022/03/02 13:57:27;;;;;;;15.85;11.68;;;;;;;;;;4979549;28;20104;-67
2022/03/02 14:00:27;;;;;;;15.68;11.23;;;;;;;;;;4989905;28;20092;-68
2022/03/02 14:02:57;;;;;;;19.38;11.82;;;;;;;;;;4972314;28;20544;-68
2022/03/02 14:05:27;;;;;;;13.10;11.45;;;;;;;;;;4992714;28;20501;-68
2022/03/02 14:08:03;;;;;;;17.00;10.68;;;;;;;;;;4992673;28;20066;-68
2022/03/02 14:10:39;;;;;;;13.80;11.73;;;;;;;;;;4993956;28;20564;-69
2022/03/02 14:13:06;;;;;;;13.65;10.38;;;;;;;;;;4992734;28;20494;-68
2022/03/02 14:15:36;;;;;;;12.68;10.48;;;;;;;;;;4992982;28;20101;-68
2022/03/02 14:18:15;;;;;;;12.77;11.18;;;;;;;;;;4978524;28;20082;-68
2022/03/02 14:20:42;;;;;;;12.00;10.52;;;;;;;;;;4993138;28;20088;-66
2022/03/02 14:23:12;;;;;;;15.13;11.70;;;;;;;;;;4992869;28;20559;-67
2022/03/02 14:25:42;;;;;;;17.30;10.27;;;;;;;;;;4993364;28;20058;-68
2022/03/02 14:28:13;;;;;;;14.63;9.75;;;;;;;;;;4993133;28;20529;-68
2022/03/02 14:30:43;;;;;;;11.82;9.73;;;;;;;;;;4994208;28;20038;-67
2022/03/02 14:33:16;;;;;;;10.68;9.57;;;;;;;;;;4992666;28;20057;-68
2022/03/02 14:35:44;;;;;;;13.23;8.82;;;;;;;;;;4992588;28;20537;-68
2022/03/02 14:38:12;;;;;;;10.70;9.48;;;;;;;;;;4993411;28;20061;-68
2022/03/02 14:40:42;;;;;;;11.95;9.85;;;;;;;;;;4992750;28;20058;-68
2022/03/02 14:43:12;;;;;;;13.15;9.23;;;;;;;;;;4992773;28;20050;-68
2022/03/02 14:45:50;;;;;;;13.93;8.77;;;;;;;;;;4994200;28;20440;-68